Time;durP1;ratioP1;P1;durP2;ratioP2;P2;SDS_P1;SDS_P2;PMS_P1;PMS_P2;Temp;Humidity;BMP_temperature;BMP_pressure;BME280_temperature;BME280_humidity;BME280_pressure;Samples;Min_cycle;Max_cycle;Signal;HPM_P1;HPM_P2
2021/01/03 00:02:02;;;;;;;41.85;22.45;;;8.80;99.90;;;;;;5036122;28;20207;-80
2021/01/03 00:04:29;;;;;;;34.05;24.75;;;8.80;99.90;;;;;;5036178;28;20257;-80
2021/01/03 00:06:56;;;;;;;41.33;25.52;;;8.80;99.90;;;;;;5036258;28;20200;-82
2021/01/03 00:09:23;;;;;;;33.22;23.95;;;8.80;99.90;;;;;;5036031;28;20268;-80
2021/01/03 00:11:49;;;;;;;37.83;24.00;;;8.80;99.90;;;;;;5035911;28;20549;-80
2021/01/03 00:14:16;;;;;;;43.00;27.35;;;8.70;99.90;;;;;;5036184;28;20200;-81
2021/01/03 00:16:46;;;;;;;31.45;23.17;;;8.70;99.90;;;;;;5035830;28;20620;-82
2021/01/03 00:19:13;;;;;;;42.78;25.38;;;8.70;99.90;;;;;;5036010;28;20202;-80
2021/01/03 00:21:40;;;;;;;40.13;23.27;;;8.70;99.90;;;;;;5035809;28;20207;-80
2021/01/03 00:24:07;;;;;;;38.70;24.17;;;8.70;99.90;;;;;;5035711;28;20195;-80
2021/01/03 00:26:33;;;;;;;38.55;23.77;;;8.60;99.90;;;;;;5035635;28;20555;-81
2021/01/03 00:28:59;;;;;;;36.58;23.67;;;8.70;99.90;;;;;;5035871;28;20272;-80
2021/01/03 00:31:26;;;;;;;34.13;22.50;;;8.70;99.90;;;;;;5035588;28;20226;-80
2021/01/03 00:33:53;;;;;;;36.08;24.60;;;8.70;99.90;;;;;;5035547;28;20250;-81
2021/01/03 00:36:21;;;;;;;37.00;24.90;;;8.70;99.90;;;;;;5035645;28;20200;-81
2021/01/03 00:38:47;;;;;;;32.08;22.08;;;8.80;99.90;;;;;;5035374;28;20211;-80
2021/01/03 00:41:13;;;;;;;36.03;25.52;;;8.70;99.90;;;;;;5035510;28;20195;-81
2021/01/03 00:43:40;;;;;;;38.67;24.17;;;8.70;99.90;;;;;;5035587;28;20563;-81
2021/01/03 00:46:06;;;;;;;34.10;22.90;;;8.60;99.90;;;;;;5035409;28;20206;-80
2021/01/03 00:48:32;;;;;;;36.45;22.90;;;8.70;99.90;;;;;;5035273;28;20631;-81
2021/01/03 00:50:59;;;;;;;36.25;23.90;;;8.70;99.90;;;;;;5034718;28;20273;-81
2021/01/03 00:53:26;;;;;;;32.70;24.50;;;8.60;99.90;;;;;;5035260;28;20260;-81
2021/01/03 00:55:52;;;;;;;39.88;25.65;;;8.60;99.90;;;;;;5035217;28;20206;-80
2021/01/03 00:58:18;;;;;;;39.17;24.45;;;8.60;99.90;;;;;;5035303;28;20196;-80
2021/01/03 01:00:44;;;;;;;37.70;24.92;;;8.60;99.90;;;;;;5034928;28;20220;-80
2021/01/03 01:03:11;;;;;;;33.70;22.45;;;8.60;99.90;;;;;;5035069;28;20192;-81
2021/01/03 01:05:37;;;;;;;39.97;25.08;;;8.60;99.90;;;;;;5035064;28;20708;-81
2021/01/03 01:08:05;;;;;;;37.40;22.30;;;8.60;99.90;;;;;;5035020;28;20219;-82
2021/01/03 01:10:31;;;;;;;39.92;23.90;;;8.60;99.90;;;;;;5034818;28;20227;-80
2021/01/03 01:13:01;;;;;;;37.38;24.77;;;8.50;99.90;;;;;;5035154;28;20199;-80
2021/01/03 01:15:29;;;;;;;34.25;22.92;;;8.60;99.90;;;;;;5035022;28;20198;-80
2021/01/03 01:17:58;;;;;;;39.75;23.83;;;8.50;99.90;;;;;;5034653;28;20192;-80
2021/01/03 01:20:28;;;;;;;31.23;22.20;;;8.50;99.90;;;;;;5034711;28;20218;-80
2021/01/03 01:22:54;;;;;;;38.88;24.80;;;8.50;99.90;;;;;;5034606;28;20196;-80
2021/01/03 01:25:25;;;;;;;39.10;24.67;;;8.60;99.90;;;;;;5034649;28;20621;-80
2021/01/03 01:27:52;;;;;;;38.45;26.92;;;8.60;99.90;;;;;;5034627;28;20196;-80
2021/01/03 01:30:19;;;;;;;35.17;24.67;;;8.60;99.90;;;;;;5034406;28;20275;-81
2021/01/03 01:32:46;;;;;;;40.00;26.30;;;8.60;99.90;;;;;;5034260;28;20231;-80
2021/01/03 01:35:15;;;;;;;40.08;24.73;;;8.50;99.90;;;;;;5034349;28;20202;-80
2021/01/03 01:37:41;;;;;;;39.08;25.38;;;8.60;99.90;;;;;;5034363;28;20293;-84
2021/01/03 01:40:11;;;;;;;39.85;25.80;;;8.50;99.90;;;;;;5034441;28;20206;-80
2021/01/03 01:42:38;;;;;;;41.63;24.83;;;8.50;99.90;;;;;;5034153;28;20204;-80
2021/01/03 01:45:06;;;;;;;35.60;24.23;;;8.40;99.90;;;;;;5034244;28;20199;-80
2021/01/03 01:47:39;;;;;;;39.67;25.05;;;8.40;99.90;;;;;;5034077;28;20290;-80
2021/01/03 01:50:09;;;;;;;42.97;25.52;;;8.40;99.90;;;;;;5034210;28;20195;-80
2021/01/03 01:52:43;;;;;;;36.63;22.65;;;8.50;99.90;;;;;;5034003;28;20232;-80
2021/01/03 01:55:16;;;;;;;39.70;25.23;;;8.50;99.90;;;;;;5034293;28;20196;-81
2021/01/03 01:57:47;;;;;;;37.78;25.75;;;8.50;99.90;;;;;;5034414;28;20262;-81
2021/01/03 02:00:19;;;;;;;38.65;24.88;;;8.40;99.90;;;;;;5034133;28;20196;-80
2021/01/03 02:02:51;;;;;;;39.60;25.20;;;8.40;99.90;;;;;;5032979;28;20206;-80
2021/01/03 02:05:24;;;;;;;39.13;24.35;;;8.40;99.90;;;;;;5033915;28;20737;-80
2021/01/03 02:07:56;;;;;;;42.22;24.80;;;8.40;99.90;;;;;;5033783;28;20216;-80
2021/01/03 02:10:26;;;;;;;37.97;24.63;;;8.40;99.90;;;;;;5033914;28;20204;-80
2021/01/03 02:13:19;;;;;;;35.47;24.45;;;8.40;99.90;;;;;;5033970;28;20192;-81
2021/01/03 02:15:46;;;;;;;35.40;24.35;;;8.40;99.90;;;;;;5033786;28;20200;-80
2021/01/03 02:18:13;;;;;;;39.90;24.08;;;8.40;99.90;;;;;;5033619;28;20205;-80
2021/01/03 02:20:53;;;;;;;39.45;24.65;;;8.40;99.90;;;;;;5033726;28;20211;-82
2021/01/03 02:23:32;;;;;;;40.35;25.30;;;8.40;99.90;;;;;;5033705;28;20203;-81
2021/01/03 02:26:01;;;;;;;40.92;25.15;;;8.40;99.90;;;;;;5033589;28;20206;-80
2021/01/03 02:28:33;;;;;;;34.20;24.85;;;8.40;99.90;;;;;;5033566;28;20561;-81
2021/01/03 02:31:00;;;;;;;36.83;23.90;;;8.40;99.90;;;;;;5033284;28;20837;-80
2021/01/03 02:33:33;;;;;;;36.35;25.10;;;8.40;99.90;;;;;;5033241;28;20587;-80
2021/01/03 02:36:05;;;;;;;37.60;24.83;;;8.40;99.90;;;;;;5033614;28;20202;-81
2021/01/03 02:38:36;;;;;;;38.60;25.23;;;8.40;99.90;;;;;;5033316;28;20230;-80
2021/01/03 02:41:03;;;;;;;44.55;25.08;;;8.40;99.90;;;;;;5033283;28;20203;-80
2021/01/03 02:43:29;;;;;;;42.20;24.70;;;8.40;99.90;;;;;;5033306;28;20203;-80
2021/01/03 02:45:56;;;;;;;37.83;24.90;;;8.30;99.90;;;;;;5033246;28;20245;-80
2021/01/03 02:48:24;;;;;;;36.25;24.20;;;8.40;99.90;;;;;;5033266;28;20253;-81
2021/01/03 02:50:51;;;;;;;36.17;24.95;;;8.40;99.90;;;;;;5033199;28;20246;-81
2021/01/03 02:53:18;;;;;;;42.42;24.45;;;8.40;99.90;;;;;;5033463;28;20206;-80
2021/01/03 02:55:45;;;;;;;31.17;20.80;;;8.30;99.90;;;;;;5033110;28;20207;-80
2021/01/03 02:58:12;;;;;;;33.05;24.20;;;8.30;99.90;;;;;;5033443;28;20200;-80
2021/01/03 03:00:39;;;;;;;35.30;24.70;;;8.30;99.90;;;;;;5033223;28;20607;-80
2021/01/03 03:03:06;;;;;;;35.90;23.27;;;8.30;99.90;;;;;;5033240;28;20199;-81
2021/01/03 03:05:33;;;;;;;35.25;24.35;;;8.30;99.90;;;;;;5033242;28;20200;-80
2021/01/03 03:07:59;;;;;;;32.30;22.55;;;8.30;99.90;;;;;;5033015;28;20561;-81
2021/01/03 03:10:25;;;;;;;35.33;22.92;;;8.30;99.90;;;;;;5033101;28;20199;-80
2021/01/03 03:12:54;;;;;;;31.75;23.27;;;8.30;99.90;;;;;;5032913;28;20201;-81
2021/01/03 03:15:23;;;;;;;33.47;22.15;;;8.30;99.90;;;;;;5036533;28;20595;-80
2021/01/03 03:17:50;;;;;;;35.08;22.52;;;8.30;99.90;;;;;;5036993;28;20198;-81
2021/01/03 03:20:18;;;;;;;29.90;19.88;;;8.30;99.90;;;;;;5037091;28;20246;-80
2021/01/03 03:22:45;;;;;;;30.75;20.10;;;8.30;99.90;;;;;;5037033;28;20215;-80
2021/01/03 03:25:12;;;;;;;31.60;20.67;;;8.30;99.90;;;;;;5036952;28;20206;-82
2021/01/03 03:27:38;;;;;;;25.20;19.17;;;8.30;99.90;;;;;;5036861;28;20274;-80
2021/01/03 03:30:06;;;;;;;33.17;19.90;;;8.40;99.90;;;;;;5036883;28;20203;-80
2021/01/03 03:32:33;;;;;;;30.08;19.52;;;8.30;99.90;;;;;;5036532;28;20258;-80
2021/01/03 03:35:00;;;;;;;29.70;19.60;;;8.30;99.90;;;;;;5036699;28;20199;-81
2021/01/03 03:37:27;;;;;;;34.08;22.02;;;8.30;99.90;;;;;;5036521;28;20215;-80
2021/01/03 03:39:53;;;;;;;31.23;20.92;;;8.40;99.90;;;;;;5036638;28;20607;-84
2021/01/03 03:42:20;;;;;;;32.97;21.30;;;8.30;99.90;;;;;;5036413;28;20195;-81
2021/01/03 03:44:46;;;;;;;29.75;18.60;;;8.30;99.90;;;;;;5036560;28;20195;-80
2021/01/03 03:47:12;;;;;;;31.92;20.75;;;8.30;99.90;;;;;;5036719;28;20603;-81
2021/01/03 03:49:39;;;;;;;34.65;20.83;;;8.30;99.90;;;;;;5036565;28;20226;-80
2021/01/03 03:52:06;;;;;;;29.88;21.75;;;8.40;99.90;;;;;;5036353;28;20240;-81
2021/01/03 03:54:33;;;;;;;32.33;20.67;;;8.50;99.90;;;;;;5036336;28;20210;-82
2021/01/03 03:57:01;;;;;;;35.33;21.50;;;8.60;99.90;;;;;;5036480;28;20202;-81
2021/01/03 03:59:28;;;;;;;33.90;21.92;;;8.60;99.90;;;;;;5036338;28;20199;-80
2021/01/03 04:01:55;;;;;;;33.22;21.67;;;8.60;99.90;;;;;;5036553;28;20207;-80
2021/01/03 04:04:22;;;;;;;28.77;20.27;;;8.50;99.90;;;;;;5036273;28;20218;-81
2021/01/03 04:06:49;;;;;;;33.70;21.35;;;8.40;99.90;;;;;;5036502;28;20195;-80
2021/01/03 04:09:16;;;;;;;31.42;21.50;;;8.40;99.90;;;;;;5036112;28;20199;-80
2021/01/03 04:11:45;;;;;;;30.30;20.30;;;8.40;99.90;;;;;;5035903;28;20235;-80
2021/01/03 04:14:13;;;;;;;34.20;19.95;;;8.40;99.90;;;;;;5036075;28;20191;-80
2021/01/03 04:16:45;;;;;;;32.90;21.60;;;8.30;99.90;;;;;;5036047;28;20196;-81
2021/01/03 04:19:12;;;;;;;30.33;20.17;;;8.40;99.90;;;;;;5036085;28;20198;-81
2021/01/03 04:21:38;;;;;;;28.73;19.23;;;8.30;99.90;;;;;;5035868;28;20537;-81
2021/01/03 04:24:07;;;;;;;32.40;21.00;;;8.30;99.90;;;;;;5035853;28;20202;-80
2021/01/03 04:26:33;;;;;;;34.50;21.13;;;8.30;99.90;;;;;;5034746;28;20226;-80
2021/01/03 04:29:00;;;;;;;33.17;18.08;;;8.30;99.90;;;;;;5035785;28;20547;-81
2021/01/03 04:31:26;;;;;;;28.02;19.33;;;8.40;99.90;;;;;;5035694;28;20227;-81
2021/01/03 04:33:52;;;;;;;32.17;20.60;;;8.40;99.90;;;;;;5035526;28;20227;-80
2021/01/03 04:36:20;;;;;;;29.88;20.42;;;8.40;99.90;;;;;;5035603;28;20192;-84
2021/01/03 04:38:46;;;;;;;26.23;17.00;;;8.40;99.90;;;;;;5035521;28;20617;-81
2021/01/03 04:41:23;;;;;;;27.35;18.20;;;8.30;99.90;;;;;;5035406;28;20199;-80
2021/01/03 04:43:49;;;;;;;30.90;19.35;;;8.30;99.90;;;;;;5035605;28;20200;-82
2021/01/03 04:46:20;;;;;;;28.98;19.80;;;8.40;99.90;;;;;;5035575;28;20204;-80
2021/01/03 04:48:49;;;;;;;29.38;17.48;;;8.30;99.90;;;;;;5035528;28;20195;-82
2021/01/03 04:51:25;;;;;;;29.38;18.73;;;8.30;99.90;;;;;;5035258;28;20249;-80
2021/01/03 04:53:57;;;;;;;30.50;19.58;;;8.30;99.90;;;;;;5035431;28;20202;-80
2021/01/03 04:56:47;;;;;;;26.52;18.00;;;8.30;99.90;;;;;;5035273;28;20631;-83
2021/01/03 04:59:23;;;;;;;26.80;17.17;;;8.30;99.90;;;;;;5035617;28;20548;-81
2021/01/03 05:02:30;;;;;;;28.73;19.80;;;8.30;99.90;;;;;;5035435;28;20540;-84
2021/01/03 05:05:13;;;;;;;26.40;16.60;;;8.30;99.90;;;;;;5035229;28;20215;-80
2021/01/03 05:07:43;;;;;;;30.45;19.02;;;8.30;99.90;;;;;;5034829;28;20317;-81
2021/01/03 05:10:16;;;;;;;26.25;17.80;;;8.30;99.90;;;;;;5034998;28;20200;-80
2021/01/03 05:12:56;;;;;;;24.02;17.38;;;8.30;99.90;;;;;;5035052;28;20223;-80
2021/01/03 05:15:26;;;;;;;25.75;15.93;;;8.30;99.90;;;;;;5034944;28;20199;-80
2021/01/03 05:17:53;;;;;;;21.80;14.85;;;8.30;99.90;;;;;;5034952;28;20200;-84
2021/01/03 05:20:20;;;;;;;25.67;16.85;;;8.30;99.90;;;;;;5034992;28;20654;-83
2021/01/03 05:22:46;;;;;;;23.08;15.93;;;8.30;99.90;;;;;;5034822;28;20286;-83
2021/01/03 05:25:16;;;;;;;24.85;16.17;;;8.40;99.90;;;;;;5034644;28;20651;-80
2021/01/03 05:27:43;;;;;;;21.33;14.70;;;8.30;99.90;;;;;;5034603;28;20199;-80
2021/01/03 05:30:18;;;;;;;22.13;13.75;;;8.30;99.90;;;;;;5034602;28;20191;-80
2021/01/03 05:32:46;;;;;;;16.75;13.30;;;8.30;99.90;;;;;;5034359;28;20239;-80
2021/01/03 05:35:23;;;;;;;18.55;12.45;;;8.30;99.90;;;;;;5034322;28;20202;-80
2021/01/03 05:37:51;;;;;;;17.75;13.55;;;8.30;99.90;;;;;;5034302;28;20303;-80
2021/01/03 05:40:20;;;;;;;16.63;11.85;;;8.20;99.90;;;;;;5034371;28;20218;-81
2021/01/03 05:42:47;;;;;;;17.50;13.25;;;8.40;99.90;;;;;;5034420;28;20310;-80
2021/01/03 05:45:26;;;;;;;20.25;13.32;;;8.30;99.90;;;;;;5034317;28;20199;-80
2021/01/03 05:47:58;;;;;;;17.30;10.63;;;8.30;99.90;;;;;;5034228;28;20195;-81
2021/01/03 05:50:32;;;;;;;17.98;11.52;;;8.20;99.90;;;;;;5034164;28;20191;-80
2021/01/03 05:53:06;;;;;;;17.35;11.52;;;8.20;99.90;;;;;;5034089;28;20223;-80
2021/01/03 05:55:33;;;;;;;15.18;10.10;;;8.20;99.90;;;;;;5034177;28;20199;-82
2021/01/03 05:58:15;;;;;;;17.15;10.95;;;8.20;99.90;;;;;;5034164;28;20781;-80
2021/01/03 06:00:42;;;;;;;13.38;9.63;;;8.20;99.90;;;;;;5034241;28;20199;-83
2021/01/03 06:03:15;;;;;;;17.95;11.23;;;8.20;99.90;;;;;;5034241;28;20532;-83
2021/01/03 06:05:44;;;;;;;11.52;8.40;;;8.20;99.90;;;;;;5034230;28;20314;-80
2021/01/03 06:08:15;;;;;;;14.05;10.27;;;8.30;99.90;;;;;;5033750;28;20223;-80
2021/01/03 06:10:42;;;;;;;16.67;9.98;;;8.10;99.90;;;;;;5033802;28;20208;-82
2021/01/03 06:13:09;;;;;;;11.50;8.95;;;8.20;99.90;;;;;;5033886;28;20196;-80
2021/01/03 06:15:39;;;;;;;14.75;9.90;;;8.20;99.90;;;;;;5033641;28;20196;-80
2021/01/03 06:18:14;;;;;;;10.98;8.50;;;8.20;99.90;;;;;;5034089;28;20204;-84
2021/01/03 06:20:40;;;;;;;13.90;9.55;;;8.10;99.90;;;;;;5033673;28;20203;-83
2021/01/03 06:23:10;;;;;;;14.07;9.93;;;8.20;99.90;;;;;;5033841;28;20191;-80
2021/01/03 06:25:43;;;;;;;10.55;8.20;;;8.30;99.90;;;;;;5033600;28;20269;-82
2021/01/03 06:28:19;;;;;;;13.00;9.52;;;8.30;99.90;;;;;;5033668;28;20230;-80
2021/01/03 06:30:54;;;;;;;10.88;7.57;;;8.20;99.90;;;;;;5033359;28;20205;-81
2021/01/03 06:33:59;;;;;;;10.35;8.88;;;8.20;99.90;;;;;;5033281;28;20227;-85
2021/01/03 06:36:32;;;;;;;9.80;8.23;;;8.20;99.90;;;;;;5033553;28;20199;-82
2021/01/03 06:39:09;;;;;;;13.32;8.50;;;8.30;99.90;;;;;;5033391;28;20219;-80
2021/01/03 06:41:53;;;;;;;9.63;7.38;;;8.20;99.90;;;;;;5033594;28;20200;-80
2021/01/03 06:45:02;;;;;;;11.00;7.55;;;8.10;99.90;;;;;;5033339;28;20203;-83
2021/01/03 06:47:52;;;;;;;9.30;6.93;;;8.20;99.90;;;;;;5013404;28;20286;-81
2021/01/03 06:50:49;;;;;;;12.55;7.13;;;8.30;99.90;;;;;;5032994;28;20725;-80
2021/01/03 06:53:41;;;;;;;10.10;6.85;;;8.10;99.90;;;;;;5033455;28;20207;-85
2021/01/03 06:56:39;;;;;;;9.60;6.22;;;8.00;99.90;;;;;;5033458;28;20253;-80
2021/01/03 06:59:45;;;;;;;7.90;7.07;;;8.10;99.90;;;;;;5033231;28;20203;-82
2021/01/03 07:02:12;;;;;;;12.77;7.57;;;8.30;99.90;;;;;;5033207;28;20200;-80
2021/01/03 07:04:39;;;;;;;9.73;6.40;;;8.20;99.90;;;;;;5033470;28;20195;-80
2021/01/03 07:07:14;;;;;;;7.25;6.05;;;8.20;99.90;;;;;;5033219;28;20219;-80
2021/01/03 07:09:55;;;;;;;8.25;5.30;;;8.10;99.90;;;;;;5033254;28;20245;-81
2021/01/03 07:12:33;;;;;;;8.60;5.97;;;8.20;99.90;;;;;;5033106;28;20230;-81
2021/01/03 07:15:00;;;;;;;9.75;6.30;;;8.20;99.90;;;;;;5033074;28;20207;-83
2021/01/03 07:18:08;;;;;;;9.02;6.65;;;8.20;99.90;;;;;;5032968;28;20647;-80
2021/01/03 07:20:37;;;;;;;7.80;5.20;;;8.20;99.90;;;;;;5005057;28;20286;-80
2021/01/03 07:23:13;;;;;;;8.57;5.70;;;8.20;99.90;;;;;;5032930;28;20203;-80
2021/01/03 07:25:52;;;;;;;8.00;5.88;;;8.30;99.90;;;;;;5033111;28;20195;-80
2021/01/03 07:28:25;;;;;;;8.50;5.45;;;8.40;99.90;;;;;;5033039;28;20553;-81
2021/01/03 07:31:00;;;;;;;7.80;5.80;;;8.30;99.90;;;;;;5032839;28;20226;-83
2021/01/03 07:33:37;;;;;;;7.90;5.63;;;8.30;99.90;;;;;;5032774;28;20230;-80
2021/01/03 07:36:24;;;;;;;6.18;5.28;;;8.30;99.90;;;;;;5032936;28;20253;-80
2021/01/03 07:39:16;;;;;;;5.45;4.90;;;8.20;99.90;;;;;;5032832;28;20224;-80
2021/01/03 07:41:43;;;;;;;5.30;4.80;;;8.40;99.90;;;;;;5032890;28;20191;-80
2021/01/03 07:44:11;;;;;;;6.05;5.45;;;8.40;99.90;;;;;;5032807;28;20273;-80
2021/01/03 07:46:54;;;;;;;5.43;4.57;;;8.50;99.90;;;;;;5032775;28;20198;-80
2021/01/03 07:49:32;;;;;;;5.38;4.47;;;8.40;99.90;;;;;;5032677;28;20286;-82
2021/01/03 07:52:01;;;;;;;6.55;5.15;;;8.30;99.90;;;;;;5032646;28;20227;-80
2021/01/03 07:54:28;;;;;;;7.05;5.50;;;8.10;99.90;;;;;;5032838;28;20206;-81
2021/01/03 07:56:55;;;;;;;7.18;5.45;;;8.30;99.90;;;;;;5032697;28;20192;-80
2021/01/03 07:59:21;;;;;;;6.20;5.20;;;8.40;99.90;;;;;;5033242;28;20205;-80
2021/01/03 08:01:50;;;;;;;5.30;4.80;;;8.30;99.90;;;;;;5036376;28;20200;-80
2021/01/03 08:04:23;;;;;;;6.25;5.13;;;8.40;99.90;;;;;;5036421;28;20191;-80
2021/01/03 08:06:50;;;;;;;5.95;4.75;;;8.40;99.90;;;;;;5036396;28;20647;-81
2021/01/03 08:09:24;;;;;;;8.77;5.63;;;8.50;99.90;;;;;;5036048;28;20204;-80
2021/01/03 08:11:53;;;;;;;5.68;4.68;;;8.50;99.90;;;;;;5035856;28;20579;-80
2021/01/03 08:14:26;;;;;;;8.45;5.18;;;8.50;99.90;;;;;;5036128;28;20242;-81
2021/01/03 08:16:57;;;;;;;6.32;5.53;;;8.30;99.90;;;;;;5036117;28;20535;-80
2021/01/03 08:19:24;;;;;;;4.72;4.30;;;8.40;99.90;;;;;;5036288;28;20199;-80
2021/01/03 08:21:55;;;;;;;4.72;4.32;;;8.40;99.90;;;;;;5035880;28;20552;-80
2021/01/03 08:24:22;;;;;;;4.88;4.40;;;8.20;99.90;;;;;;5035980;28;20195;-81
2021/01/03 08:26:52;;;;;;;5.43;4.93;;;8.10;99.90;;;;;;5035927;28;20204;-80
2021/01/03 08:29:25;;;;;;;5.65;3.85;;;8.20;99.90;;;;;;5035723;28;20206;-82
2021/01/03 08:31:55;;;;;;;5.95;4.10;;;8.20;99.90;;;;;;5035466;28;20622;-80
2021/01/03 08:34:24;;;;;;;4.97;3.80;;;8.20;99.90;;;;;;5035761;28;20200;-84
2021/01/03 08:36:51;;;;;;;5.85;4.43;;;8.10;99.90;;;;;;5035397;28;20227;-82
2021/01/03 08:39:17;;;;;;;7.55;5.30;;;8.20;99.90;;;;;;5035479;28;20203;-83
2021/01/03 08:41:54;;;;;;;4.93;4.30;;;8.30;99.90;;;;;;5035628;28;20200;-81
2021/01/03 08:44:26;;;;;;;5.03;3.83;;;8.10;99.90;;;;;;5035451;28;20203;-80
2021/01/03 08:47:05;;;;;;;5.05;4.55;;;8.10;99.90;;;;;;5035658;28;20202;-80
2021/01/03 08:49:32;;;;;;;7.05;4.15;;;8.00;99.90;;;;;;5035356;28;20226;-80
2021/01/03 08:52:06;;;;;;;5.35;4.05;;;8.10;99.90;;;;;;5035280;28;20224;-81
2021/01/03 08:54:33;;;;;;;5.55;4.60;;;8.00;99.90;;;;;;5035203;28;20195;-80
2021/01/03 08:57:02;;;;;;;7.60;5.22;;;7.90;99.90;;;;;;5035331;28;20592;-80
2021/01/03 08:59:29;;;;;;;5.85;4.10;;;7.90;99.90;;;;;;5035341;28;20199;-81
2021/01/03 09:01:56;;;;;;;4.80;3.65;;;7.90;99.90;;;;;;5035074;28;20242;-80
2021/01/03 09:04:23;;;;;;;5.40;4.20;;;7.80;99.90;;;;;;5035016;28;20283;-80
2021/01/03 09:06:56;;;;;;;5.25;4.32;;;7.90;99.90;;;;;;5034396;28;20219;-79
2021/01/03 09:09:27;;;;;;;6.68;4.22;;;7.80;99.90;;;;;;5034957;28;20199;-80
2021/01/03 09:11:57;;;;;;;5.97;4.28;;;8.00;99.90;;;;;;5034335;28;20215;-80
2021/01/03 09:14:29;;;;;;;6.80;5.35;;;8.10;99.90;;;;;;5034825;28;20195;-79
2021/01/03 09:17:03;;;;;;;6.63;4.38;;;8.10;99.90;;;;;;5034838;28;20203;-79
2021/01/03 09:19:39;;;;;;;4.35;3.95;;;8.10;99.90;;;;;;5034652;28;20202;-80
2021/01/03 09:22:07;;;;;;;5.00;3.80;;;8.10;99.90;;;;;;5034742;28;20272;-79
2021/01/03 09:24:36;;;;;;;6.60;5.03;;;8.10;99.90;;;;;;5034476;28;20196;-81
2021/01/03 09:27:05;;;;;;;5.22;4.50;;;8.20;99.90;;;;;;5034654;28;20195;-80
2021/01/03 09:29:34;;;;;;;4.47;3.97;;;8.20;99.90;;;;;;5034625;28;20199;-80
2021/01/03 09:32:07;;;;;;;8.35;4.80;;;8.20;99.90;;;;;;5034283;28;20228;-80
2021/01/03 09:34:50;;;;;;;5.60;4.07;;;8.20;99.90;;;;;;5034463;28;20282;-80
2021/01/03 09:37:22;;;;;;;7.35;4.10;;;8.10;99.90;;;;;;5034541;28;20678;-80
2021/01/03 09:40:13;;;;;;;5.15;4.65;;;8.10;99.90;;;;;;5034495;28;20207;-81
2021/01/03 09:42:42;;;;;;;5.22;4.15;;;8.10;99.90;;;;;;5034420;28;20560;-80
2021/01/03 09:45:32;;;;;;;5.35;4.32;;;7.90;99.90;;;;;;5034313;28;20195;-80
2021/01/03 09:47:59;;;;;;;5.20;3.88;;;8.00;99.90;;;;;;5034210;28;20196;-80
2021/01/03 09:50:30;;;;;;;4.13;3.72;;;8.00;99.90;;;;;;5034202;28;20203;-82
2021/01/03 09:53:07;;;;;;;4.43;4.03;;;8.10;99.90;;;;;;5034100;28;20694;-81
2021/01/03 09:55:40;;;;;;;4.00;3.60;;;8.20;99.90;;;;;;5033912;28;20195;-81
2021/01/03 09:58:08;;;;;;;3.90;3.58;;;8.10;99.90;;;;;;5034045;28;20202;-83
2021/01/03 10:00:51;;;;;;;5.07;4.15;;;8.00;99.90;;;;;;5034146;28;20204;-80
2021/01/03 10:03:20;;;;;;;4.50;3.35;;;7.90;99.90;;;;;;5034023;28;20204;-80
2021/01/03 10:05:47;;;;;;;3.95;3.55;;;8.00;99.90;;;;;;5033737;28;20195;-81
2021/01/03 10:08:18;;;;;;;5.68;4.20;;;8.00;99.90;;;;;;5033823;28;20234;-79
2021/01/03 10:10:48;;;;;;;4.80;4.38;;;8.20;99.90;;;;;;5033613;28;20249;-80
2021/01/03 10:13:15;;;;;;;4.32;3.50;;;8.30;99.90;;;;;;5033150;28;20223;-80
2021/01/03 10:15:43;;;;;;;4.38;3.97;;;8.20;99.90;;;;;;5032907;28;20259;-80
2021/01/03 10:18:13;;;;;;;3.70;3.40;;;8.10;99.90;;;;;;5033592;28;20206;-79
2021/01/03 10:20:43;;;;;;;6.65;3.72;;;8.00;99.90;;;;;;5033947;28;20257;-80
2021/01/03 10:23:13;;;;;;;3.83;3.42;;;8.00;99.90;;;;;;5026342;28;20199;-79
2021/01/03 10:25:39;;;;;;;3.75;3.20;;;8.20;99.90;;;;;;5028076;28;20196;-81
2021/01/03 10:28:12;;;;;;;4.28;3.88;;;8.10;99.90;;;;;;5032836;28;20188;-81
2021/01/03 10:30:40;;;;;;;3.58;3.28;;;8.30;99.90;;;;;;5033504;28;20192;-82
2021/01/03 10:33:07;;;;;;;4.93;4.50;;;8.40;99.90;;;;;;5032811;28;20235;-82
2021/01/03 10:35:35;;;;;;;4.72;3.47;;;8.50;99.90;;;;;;5033460;28;20192;-80
2021/01/03 10:38:01;;;;;;;3.97;3.55;;;8.50;99.90;;;;;;5031432;28;20223;-81
2021/01/03 10:40:27;;;;;;;3.42;3.13;;;8.50;99.90;;;;;;5032747;28;20183;-79
2021/01/03 10:42:54;;;;;;;3.78;3.40;;;8.40;99.90;;;;;;5019616;28;20198;-86
2021/01/03 10:45:22;;;;;;;6.20;3.35;;;8.20;99.90;;;;;;5019601;28;20235;-79
2021/01/03 10:47:48;;;;;;;5.70;4.22;;;8.30;99.90;;;;;;5015512;28;20188;-82
2021/01/03 10:50:16;;;;;;;3.20;2.88;;;8.30;99.90;;;;;;5022712;28;20196;-80
2021/01/03 10:52:44;;;;;;;3.92;3.40;;;8.30;99.90;;;;;;5025616;28;20219;-86
2021/01/03 10:55:11;;;;;;;3.42;3.10;;;8.40;99.90;;;;;;5023531;28;20184;-87
2021/01/03 10:57:38;;;;;;;4.05;3.17;;;8.40;99.90;;;;;;5022361;28;20905;-82
2021/01/03 11:00:06;;;;;;;4.55;3.25;;;8.30;99.90;;;;;;5024054;28;20203;-83
2021/01/03 11:02:33;;;;;;;4.10;3.67;;;8.30;99.90;;;;;;5025713;28;20192;-82
2021/01/03 11:04:59;;;;;;;4.75;4.35;;;8.20;99.90;;;;;;5023284;28;20246;-80
2021/01/03 11:07:25;;;;;;;5.28;3.80;;;8.00;99.90;;;;;;5032642;28;20220;-80
2021/01/03 11:09:52;;;;;;;5.15;3.60;;;8.20;99.90;;;;;;5033238;28;20203;-81
2021/01/03 11:12:19;;;;;;;4.32;3.72;;;8.10;99.90;;;;;;5033199;28;20254;-81
2021/01/03 11:14:46;;;;;;;4.43;4.03;;;8.20;99.90;;;;;;5032720;28;20195;-80
2021/01/03 11:17:15;;;;;;;3.85;3.28;;;8.10;99.90;;;;;;5030867;28;20191;-80
2021/01/03 11:19:41;;;;;;;4.50;4.00;;;8.20;99.90;;;;;;5029816;28;20191;-79
2021/01/03 11:22:10;;;;;;;4.00;2.78;;;8.20;99.90;;;;;;5031107;28;20192;-81
2021/01/03 11:24:38;;;;;;;3.28;2.97;;;8.30;99.90;;;;;;5031285;28;20191;-80
2021/01/03 11:27:08;;;;;;;5.13;4.13;;;8.20;99.90;;;;;;5031660;28;20222;-83
2021/01/03 11:29:35;;;;;;;5.43;3.28;;;8.30;99.90;;;;;;5032469;28;20206;-81
2021/01/03 11:32:02;;;;;;;5.55;3.25;;;8.20;99.90;;;;;;5031825;28;20230;-81
2021/01/03 11:34:31;;;;;;;5.28;3.97;;;8.30;99.90;;;;;;5033168;28;20230;-82
2021/01/03 11:36:59;;;;;;;6.07;4.32;;;8.30;99.90;;;;;;5036208;28;20277;-82
2021/01/03 11:39:28;;;;;;;3.80;3.20;;;8.30;99.90;;;;;;5036330;28;20191;-80
2021/01/03 11:41:56;;;;;;;4.50;4.10;;;8.20;99.90;;;;;;5036444;28;20286;-79
2021/01/03 11:44:24;;;;;;;4.97;4.25;;;8.20;99.90;;;;;;5036200;28;20649;-80
2021/01/03 11:46:57;;;;;;;4.68;3.90;;;8.20;99.90;;;;;;5034795;28;20202;-79
2021/01/03 11:49:23;;;;;;;4.15;3.75;;;8.30;99.90;;;;;;5035926;28;20199;-80
2021/01/03 11:51:50;;;;;;;4.68;4.25;;;8.30;99.90;;;;;;5035824;28;20698;-80
2021/01/03 11:54:18;;;;;;;4.50;3.95;;;8.30;99.90;;;;;;5035841;28;20682;-79
2021/01/03 11:56:44;;;;;;;4.90;4.15;;;8.30;99.90;;;;;;5035947;28;20196;-79
2021/01/03 11:59:10;;;;;;;6.32;4.43;;;8.40;99.90;;;;;;5036073;28;20199;-80
2021/01/03 12:01:37;;;;;;;5.38;4.10;;;8.30;99.90;;;;;;5036183;28;20207;-80
2021/01/03 12:04:05;;;;;;;4.30;3.90;;;8.20;99.90;;;;;;5036045;28;20199;-83
2021/01/03 12:06:31;;;;;;;4.65;4.25;;;8.30;99.90;;;;;;5033596;28;20294;-80
2021/01/03 12:08:57;;;;;;;3.85;3.53;;;8.40;99.90;;;;;;5035678;28;20191;-83
2021/01/03 12:11:26;;;;;;;6.82;4.82;;;8.30;99.90;;;;;;5035920;28;20200;-83
2021/01/03 12:13:54;;;;;;;4.80;4.07;;;8.50;99.90;;;;;;5036029;28;20297;-85
2021/01/03 12:16:22;;;;;;;7.13;4.18;;;8.50;99.90;;;;;;5034800;28;20594;-83
2021/01/03 12:18:50;;;;;;;4.80;3.83;;;8.50;99.90;;;;;;5035264;28;20203;-82
2021/01/03 12:21:28;;;;;;;5.65;4.68;;;8.30;99.90;;;;;;5035681;28;20202;-82
2021/01/03 12:23:55;;;;;;;7.15;5.60;;;8.30;99.90;;;;;;5035296;28;20195;-82
2021/01/03 12:26:24;;;;;;;8.88;4.60;;;8.50;99.90;;;;;;5035287;28;20655;-82
2021/01/03 12:28:50;;;;;;;5.65;4.40;;;8.20;99.90;;;;;;5035634;28;20206;-82
2021/01/03 12:31:17;;;;;;;5.78;5.20;;;8.20;99.90;;;;;;5035507;28;20590;-82
2021/01/03 12:33:43;;;;;;;5.90;4.63;;;8.30;99.90;;;;;;5034981;28;20219;-82
2021/01/03 12:36:11;;;;;;;4.85;4.35;;;8.40;99.90;;;;;;5035203;28;20215;-81
2021/01/03 12:38:37;;;;;;;5.80;4.68;;;8.30;99.90;;;;;;5034520;28;20195;-82
2021/01/03 12:41:04;;;;;;;6.45;5.03;;;8.20;99.90;;;;;;5034863;28;20195;-86
2021/01/03 12:43:30;;;;;;;5.40;4.90;;;8.10;99.90;;;;;;5035301;28;20681;-84
2021/01/03 12:45:56;;;;;;;7.10;5.05;;;8.20;99.90;;;;;;5034787;28;20199;-85
2021/01/03 12:48:22;;;;;;;5.70;5.15;;;8.30;99.90;;;;;;5035152;28;20192;-83
2021/01/03 12:50:49;;;;;;;5.90;5.30;;;8.40;99.90;;;;;;5035168;28;20642;-84
2021/01/03 12:53:16;;;;;;;5.20;4.55;;;8.20;99.90;;;;;;5034895;28;20227;-85
2021/01/03 12:55:42;;;;;;;6.25;4.90;;;8.30;99.90;;;;;;5033409;28;20257;-84
2021/01/03 12:58:09;;;;;;;7.25;4.95;;;8.20;99.90;;;;;;5034437;28;20196;-87
2021/01/03 13:00:35;;;;;;;8.27;6.68;;;8.10;99.90;;;;;;5035278;28;20278;-84
2021/01/03 13:03:01;;;;;;;6.10;4.55;;;8.30;99.90;;;;;;5033691;28;20251;-85
2021/01/03 13:05:27;;;;;;;6.22;4.65;;;8.40;99.90;;;;;;5034617;28;20250;-84